createdAt,value
2018-11-02T00:01:31.752Z,5.16
2018-11-02T00:04:04.288Z,5.17
2018-11-02T00:06:36.760Z,5.19
2018-11-02T00:09:09.104Z,5.19
2018-11-02T00:11:41.556Z,5.23
2018-11-02T00:14:13.917Z,5.26
2018-11-02T00:16:46.225Z,5.30
2018-11-02T00:19:36.659Z,5.24
2018-11-02T00:22:09.213Z,5.11
2018-11-02T00:24:41.590Z,5.11
2018-11-02T00:27:14.075Z,5.03
2018-11-02T00:29:46.612Z,5.06
2018-11-02T00:32:19.173Z,5.02
2018-11-02T00:34:51.530Z,5.04
2018-11-02T00:37:23.864Z,5.06
2018-11-02T00:39:56.478Z,5.03
2018-11-02T00:42:28.900Z,5.04
2018-11-02T00:45:01.272Z,5.02
2018-11-02T00:47:33.805Z,5.08
2018-11-02T00:50:08.446Z,5.10
2018-11-02T00:52:40.977Z,5.12
2018-11-02T00:55:13.383Z,5.12
2018-11-02T00:57:45.730Z,5.09
2018-11-02T01:00:18.246Z,5.15
2018-11-02T01:02:50.575Z,5.14
2018-11-02T01:05:23.051Z,5.14
2018-11-02T01:07:55.415Z,5.16
2018-11-02T01:10:27.922Z,5.08
2018-11-02T01:13:00.266Z,5.06
2018-11-02T01:15:32.528Z,4.89
2018-11-02T01:18:05.443Z,4.74
2018-11-02T01:20:37.850Z,4.70
2018-11-02T01:23:10.278Z,4.71
2018-11-02T01:25:43.354Z,4.73
2018-11-02T01:28:15.725Z,4.78
2018-11-02T01:30:48.111Z,4.79
2018-11-02T01:33:38.495Z,4.82
2018-11-02T01:36:10.803Z,4.90
2018-11-02T01:38:43.196Z,4.94
2018-11-02T01:41:15.418Z,4.97
2018-11-02T01:43:47.717Z,5.00
2018-11-02T01:46:20.057Z,5.04
2018-11-02T01:48:52.379Z,4.92
2018-11-02T01:51:24.798Z,4.96
2018-11-02T01:53:57.253Z,5.00
2018-11-02T01:56:29.555Z,5.00
2018-11-02T01:59:02.082Z,5.02
2018-11-02T02:01:34.445Z,5.03
2018-11-02T02:04:06.790Z,5.01
2018-11-02T02:06:39.212Z,5.11
2018-11-02T02:09:12.412Z,5.16
2018-11-02T02:11:44.906Z,5.14
2018-11-02T02:14:17.438Z,5.18
2018-11-02T02:16:49.865Z,5.26
2018-11-02T02:19:22.639Z,5.21
2018-11-02T02:21:55.058Z,5.20
2018-11-02T02:24:27.422Z,5.19
2018-11-02T02:26:59.830Z,5.17
2018-11-02T02:29:32.118Z,5.12
2018-11-02T02:32:04.657Z,5.12
2018-11-02T02:34:37.010Z,4.98
2018-11-02T02:37:09.418Z,4.84
2018-11-02T02:39:41.741Z,4.77
2018-11-02T02:42:14.207Z,4.75
2018-11-02T02:44:46.513Z,4.67
2018-11-02T02:47:18.846Z,4.65
2018-11-02T02:49:51.374Z,4.65
2018-11-02T02:52:23.845Z,4.70
2018-11-02T02:54:56.388Z,4.76
2018-11-02T02:57:28.686Z,4.77
2018-11-02T03:00:01.113Z,4.79
2018-11-02T03:02:33.375Z,4.78
2018-11-02T03:05:05.998Z,4.78
2018-11-02T03:07:38.862Z,4.75
2018-11-02T03:10:11.476Z,4.67
2018-11-02T03:12:43.811Z,4.67
2018-11-02T03:15:16.342Z,4.67
2018-11-02T03:17:48.826Z,4.65
2018-11-02T03:20:21.178Z,4.70
2018-11-02T03:22:53.453Z,4.72
2018-11-02T03:25:25.744Z,4.85
2018-11-02T03:27:58.179Z,4.85
2018-11-02T03:30:30.507Z,4.78
2018-11-02T03:33:02.817Z,4.75
2018-11-02T03:35:35.226Z,4.67
2018-11-02T03:38:07.595Z,4.66
2018-11-02T03:40:40.002Z,4.64
2018-11-02T03:43:12.554Z,4.67
2018-11-02T03:45:44.957Z,4.72
2018-11-02T03:48:17.359Z,4.73
2018-11-02T03:50:49.825Z,4.72
2018-11-02T03:53:22.267Z,4.74
2018-11-02T03:55:54.610Z,4.75
2018-11-02T03:58:26.918Z,4.76
2018-11-02T04:00:59.487Z,4.73
2018-11-02T04:03:31.812Z,4.70
2018-11-02T04:06:05.054Z,4.72
2018-11-02T04:08:37.493Z,4.69
2018-11-02T04:11:09.925Z,4.61
2018-11-02T04:13:42.427Z,4.60
2018-11-02T04:16:14.782Z,4.63
2018-11-02T04:18:47.192Z,4.56
2018-11-02T04:21:19.584Z,4.55
2018-11-02T04:23:51.863Z,4.59
2018-11-02T04:26:24.142Z,4.54
2018-11-02T04:28:56.431Z,4.51
2018-11-02T04:31:28.826Z,4.45
2018-11-02T04:34:01.239Z,4.46
2018-11-02T04:36:33.645Z,4.40
2018-11-02T04:39:08.249Z,4.37
2018-11-02T04:41:40.615Z,4.33
2018-11-02T04:44:13.071Z,4.25
2018-11-02T04:46:45.373Z,4.30
2018-11-02T04:49:17.873Z,4.34
2018-11-02T04:51:50.416Z,4.36
2018-11-02T04:54:22.844Z,4.32
2018-11-02T04:56:55.313Z,4.35
2018-11-02T04:59:27.707Z,4.40
2018-11-02T05:02:00.161Z,4.35
2018-11-02T05:04:32.531Z,4.22
2018-11-02T05:07:05.138Z,4.21
2018-11-02T05:09:37.478Z,4.27
2018-11-02T05:12:09.721Z,4.25
2018-11-02T05:14:42.133Z,4.27
2018-11-02T05:17:14.798Z,4.23
2018-11-02T05:19:47.166Z,4.18
2018-11-02T05:22:19.584Z,4.19
2018-11-02T05:24:51.882Z,4.28
2018-11-02T05:27:24.219Z,4.32
2018-11-02T05:29:56.526Z,4.37
2018-11-02T05:32:28.874Z,4.36
2018-11-02T05:35:01.153Z,4.35
2018-11-02T05:37:33.457Z,4.39
2018-11-02T05:40:06.545Z,4.32
2018-11-02T05:42:38.872Z,4.30
2018-11-02T05:45:11.217Z,4.23
2018-11-02T05:47:43.574Z,4.26
2018-11-02T05:50:16.033Z,4.22
2018-11-02T05:52:48.494Z,4.21
2018-11-02T05:55:21.018Z,4.15
2018-11-02T05:57:53.476Z,4.08
2018-11-02T06:00:25.758Z,4.13
2018-11-02T06:02:58.075Z,4.05
2018-11-02T06:05:30.705Z,4.01
2018-11-02T06:08:03.176Z,3.97
2018-11-02T06:10:35.536Z,3.97
2018-11-02T06:13:08.117Z,3.95
2018-11-02T06:15:40.461Z,3.95
2018-11-02T06:18:12.738Z,3.93
2018-11-02T06:20:45.026Z,3.93
2018-11-02T06:23:17.653Z,3.93
2018-11-02T06:25:49.945Z,3.89
2018-11-02T06:28:22.486Z,3.85
2018-11-02T06:30:54.873Z,3.85
2018-11-02T06:33:27.369Z,3.80
2018-11-02T06:35:59.874Z,3.80
2018-11-02T06:38:32.200Z,3.79
2018-11-02T06:41:04.923Z,3.82
2018-11-02T06:43:37.354Z,3.73
2018-11-02T06:46:09.766Z,3.82
2018-11-02T06:48:42.093Z,3.85
2018-11-02T06:51:14.503Z,3.96
2018-11-02T06:53:46.965Z,4.25
2018-11-02T06:56:19.356Z,4.48
2018-11-02T06:58:52.040Z,4.74
2018-11-02T07:01:24.358Z,4.86
2018-11-02T07:03:56.737Z,5.00
2018-11-02T07:06:29.075Z,5.30
2018-11-02T07:09:01.286Z,5.60
2018-11-02T07:11:33.529Z,5.91
2018-11-02T07:14:06.163Z,6.10
2018-11-02T07:16:38.742Z,6.37
2018-11-02T07:19:11.094Z,6.52
2018-11-02T07:21:43.538Z,6.57
2018-11-02T07:24:15.831Z,6.52
2018-11-02T07:26:48.068Z,6.55
2018-11-02T07:29:20.315Z,6.67
2018-11-02T07:31:52.718Z,6.74
2018-11-02T07:34:25.067Z,6.88
2018-11-02T07:36:57.233Z,7.06
2018-11-02T07:39:32.056Z,7.00
2018-11-02T07:42:04.425Z,7.00
2018-11-02T07:44:36.914Z,7.22
2018-11-02T07:47:09.180Z,7.45
2018-11-02T07:49:41.641Z,7.84
2018-11-02T07:52:13.915Z,8.19
2018-11-02T07:54:46.173Z,8.41
2018-11-02T07:57:18.542Z,8.65
2018-11-02T07:59:50.974Z,8.83
2018-11-02T08:02:23.281Z,8.97
2018-11-02T08:04:55.645Z,9.06
2018-11-02T08:07:27.978Z,9.16
2018-11-02T08:10:00.283Z,9.31
2018-11-02T08:12:32.676Z,9.23
2018-11-02T08:15:06.935Z,9.18
2018-11-02T08:17:40.081Z,9.16
2018-11-02T08:20:13.176Z,9.05
2018-11-02T08:22:45.422Z,9.09
2018-11-02T08:25:17.697Z,9.19
2018-11-02T08:27:50.074Z,9.19
2018-11-02T08:30:22.506Z,9.29
2018-11-02T08:32:54.810Z,9.49
2018-11-02T08:35:27.150Z,9.50
2018-11-02T08:37:59.390Z,9.53
2018-11-02T08:40:31.698Z,9.61
2018-11-02T08:43:04.282Z,9.67
2018-11-02T08:45:36.575Z,9.65
2018-11-02T08:48:08.946Z,9.64
2018-11-02T08:50:41.369Z,9.59
2018-11-02T08:53:13.682Z,9.60
2018-11-02T08:55:46.197Z,9.64
2018-11-02T08:58:18.746Z,9.60
2018-11-02T09:00:50.829Z,9.63
2018-11-02T09:03:23.281Z,9.65
2018-11-02T09:05:55.661Z,9.69
2018-11-02T09:08:27.993Z,9.78
2018-11-02T09:11:00.360Z,9.87
2018-11-02T09:13:33.114Z,9.92
2018-11-02T09:16:05.731Z,10.04
2018-11-02T09:18:38.146Z,10.13
2018-11-02T09:21:10.818Z,10.23
2018-11-02T09:23:43.589Z,10.29
2018-11-02T09:26:15.892Z,10.29
2018-11-02T09:28:48.234Z,10.33
2018-11-02T09:31:20.653Z,10.43
2018-11-02T09:33:53.042Z,10.57
2018-11-02T09:36:25.604Z,10.67
2018-11-02T09:38:57.915Z,10.79
2018-11-02T09:41:30.378Z,10.86
2018-11-02T09:44:02.892Z,11.00
2018-11-02T09:46:35.845Z,11.11
2018-11-02T09:49:08.291Z,11.27
2018-11-02T09:51:40.845Z,11.34
2018-11-02T09:54:12.989Z,11.48
2018-11-02T09:56:45.381Z,11.61
2018-11-02T09:59:17.806Z,11.58
2018-11-02T10:01:50.171Z,11.70
2018-11-02T10:04:22.808Z,11.80
2018-11-02T10:06:55.680Z,11.95
2018-11-02T10:09:28.146Z,11.88
2018-11-02T10:12:00.539Z,11.91
2018-11-02T10:14:32.875Z,11.94
2018-11-02T10:17:05.518Z,12.05
2018-11-02T10:19:38.074Z,12.12
2018-11-02T10:22:10.493Z,12.15
2018-11-02T10:24:43.107Z,12.15
2018-11-02T10:27:15.753Z,12.19
2018-11-02T10:29:48.228Z,12.22
2018-11-02T10:32:20.690Z,12.24
2018-11-02T10:34:53.146Z,12.29
2018-11-02T10:37:25.683Z,12.46
2018-11-02T10:39:58.178Z,12.54
2018-11-02T10:42:30.621Z,12.52
2018-11-02T10:45:03.605Z,12.56
2018-11-02T10:47:36.183Z,12.63
2018-11-02T10:50:08.673Z,12.63
2018-11-02T10:52:41.189Z,12.68
2018-11-02T10:55:13.559Z,12.66
2018-11-02T10:57:46.317Z,12.69
2018-11-02T11:00:24.120Z,12.71
2018-11-02T11:02:56.611Z,12.68
2018-11-02T11:05:29.140Z,12.68
2018-11-02T11:08:01.606Z,12.70
2018-11-02T11:10:33.956Z,12.79
2018-11-02T11:13:06.750Z,12.88
2018-11-02T11:15:38.815Z,12.98
2018-11-02T11:18:11.229Z,13.12
2018-11-02T11:20:43.718Z,13.20
2018-11-02T11:23:16.311Z,13.38
2018-11-02T11:25:48.867Z,13.39
2018-11-02T11:28:21.375Z,13.44
2018-11-02T11:30:53.697Z,13.51
2018-11-02T11:33:26.275Z,13.60
2018-11-02T11:35:58.622Z,13.73
2018-11-02T11:38:33.035Z,13.77
2018-11-02T11:41:05.475Z,13.95
2018-11-02T11:43:38.060Z,14.30
2018-11-02T11:46:10.634Z,14.16
2018-11-02T11:48:43.310Z,14.18
2018-11-02T11:51:15.568Z,14.32
2018-11-02T11:53:48.322Z,14.24
2018-11-02T11:56:20.750Z,14.28
2018-11-02T11:58:53.164Z,14.30
2018-11-02T12:01:25.638Z,14.27
2018-11-02T12:03:58.067Z,14.38
2018-11-02T12:06:30.458Z,14.35
2018-11-02T12:09:03.821Z,14.34
2018-11-02T12:11:36.205Z,14.40
2018-11-02T12:14:08.580Z,14.40
2018-11-02T12:16:41.015Z,14.42
2018-11-02T12:19:13.820Z,14.45
2018-11-02T12:21:46.172Z,14.48
2018-11-02T12:24:18.534Z,14.55
2018-11-02T12:26:51.034Z,14.66
2018-11-02T12:29:23.478Z,14.60
2018-11-02T12:31:55.860Z,14.51
2018-11-02T12:34:28.343Z,14.43
2018-11-02T12:37:00.781Z,14.36
2018-11-02T12:39:33.171Z,14.30
2018-11-02T12:42:05.550Z,14.35
2018-11-02T12:44:37.898Z,14.36
2018-11-02T12:47:10.282Z,14.37
2018-11-02T12:49:42.947Z,14.39
2018-11-02T12:52:15.030Z,14.40
2018-11-02T12:54:47.446Z,14.40
2018-11-02T12:57:19.861Z,14.41
2018-11-02T12:59:52.338Z,14.37
2018-11-02T13:02:24.685Z,14.33
2018-11-02T13:04:57.123Z,14.35
2018-11-02T13:07:29.579Z,14.35
2018-11-02T13:10:02.279Z,14.36
2018-11-02T13:12:34.595Z,14.40
2018-11-02T13:15:09.126Z,14.39
2018-11-02T13:17:42.584Z,14.51
2018-11-02T13:20:17.470Z,14.45
2018-11-02T13:22:51.902Z,14.41
2018-11-02T13:25:24.293Z,14.17
2018-11-02T13:27:56.679Z,14.26
2018-11-02T13:30:29.311Z,14.06
2018-11-02T13:33:01.575Z,14.11
2018-11-02T13:35:34.019Z,14.06
2018-11-02T13:38:06.492Z,14.03
2018-11-02T13:40:38.861Z,14.02
2018-11-02T13:43:11.559Z,14.04
2018-11-02T13:45:43.804Z,14.01
2018-11-02T13:48:16.189Z,14.03
2018-11-02T13:50:48.579Z,13.96
2018-11-02T13:53:21.105Z,13.94
2018-11-02T13:55:53.469Z,13.92
2018-11-02T13:58:26.121Z,13.94
2018-11-02T14:00:58.751Z,13.97
2018-11-02T14:03:31.101Z,13.98
2018-11-02T14:06:03.670Z,13.96
2018-11-02T14:08:36.116Z,13.97
2018-11-02T14:11:08.489Z,13.97
2018-11-02T14:13:40.858Z,13.90
2018-11-02T14:16:13.385Z,13.79
2018-11-02T14:18:45.826Z,13.82
2018-11-02T14:21:18.193Z,13.77
2018-11-02T14:23:50.767Z,13.72
2018-11-02T14:26:23.148Z,13.72
2018-11-02T14:28:55.493Z,13.83
2018-11-02T14:31:27.862Z,13.73
2018-11-02T14:34:00.297Z,13.69
2018-11-02T14:36:32.659Z,13.68
2018-11-02T14:39:08.288Z,13.70
2018-11-02T14:41:41.534Z,13.70
2018-11-02T14:44:13.938Z,13.80
2018-11-02T14:46:47.188Z,13.72
2018-11-02T14:49:19.610Z,13.71
2018-11-02T14:51:52.111Z,13.64
2018-11-02T14:54:24.637Z,13.68
2018-11-02T14:56:57.034Z,13.56
2018-11-02T14:59:29.449Z,13.47
2018-11-02T15:02:01.883Z,13.48
2018-11-02T15:04:39.063Z,13.46
2018-11-02T15:07:14.756Z,13.40
2018-11-02T15:09:47.963Z,13.39
2018-11-02T15:12:20.389Z,13.40
2018-11-02T15:14:52.746Z,13.39
2018-11-02T15:17:25.141Z,13.36
2018-11-02T15:19:57.531Z,13.34
2018-11-02T15:22:29.942Z,13.31
2018-11-02T15:25:02.347Z,13.23
2018-11-02T15:27:34.742Z,13.18
2018-11-02T15:30:10.107Z,13.12
2018-11-02T15:32:43.986Z,13.09
2018-11-02T15:35:18.468Z,13.01
2018-11-02T15:37:51.860Z,12.96
2018-11-02T15:40:24.979Z,12.89
2018-11-02T15:42:57.752Z,12.84
2018-11-02T15:45:31.018Z,12.79
2018-11-02T15:48:03.403Z,12.72
2018-11-02T15:50:35.889Z,12.68
2018-11-02T15:53:08.449Z,12.63
2018-11-02T15:55:40.908Z,12.58
2018-11-02T15:58:13.909Z,12.53
2018-11-02T16:00:46.934Z,12.49
2018-11-02T16:03:20.420Z,12.45
2018-11-02T16:05:53.825Z,12.40
2018-11-02T16:08:26.743Z,12.36
2018-11-02T16:10:59.220Z,12.33
2018-11-02T16:13:31.687Z,12.25
2018-11-02T16:16:04.338Z,12.20
2018-11-02T16:18:36.891Z,12.16
2018-11-02T16:21:09.248Z,12.10
2018-11-02T16:23:41.628Z,12.23
2018-11-02T16:26:15.134Z,12.14
2018-11-02T16:28:48.151Z,12.10
2018-11-02T16:31:20.820Z,12.05
2018-11-02T16:33:53.393Z,12.01
2018-11-02T16:36:25.885Z,11.95
2018-11-02T16:38:58.361Z,11.94
2018-11-02T16:41:30.740Z,11.89
2018-11-02T16:44:03.263Z,11.81
2018-11-02T16:46:35.746Z,11.80
2018-11-02T16:49:08.331Z,11.79
2018-11-02T16:51:41.059Z,11.71
2018-11-02T16:54:14.464Z,11.70
2018-11-02T16:56:48.286Z,11.68
2018-11-02T16:59:21.351Z,11.67
2018-11-02T17:01:54.623Z,11.67
2018-11-02T17:04:27.176Z,11.63
2018-11-02T17:06:59.606Z,11.60
2018-11-02T17:09:31.964Z,11.57
2018-11-02T17:12:04.569Z,11.55
2018-11-02T17:14:37.122Z,11.51
2018-11-02T17:17:09.729Z,11.50
2018-11-02T17:19:42.292Z,11.47
2018-11-02T17:22:15.778Z,11.44
2018-11-02T17:24:48.467Z,11.43
2018-11-02T17:27:21.697Z,11.38
2018-11-02T17:29:54.726Z,11.32
2018-11-02T17:32:27.330Z,11.30
2018-11-02T17:34:59.814Z,11.25
2018-11-02T17:37:32.339Z,11.25
2018-11-02T17:40:05.854Z,11.19
2018-11-02T17:42:38.292Z,11.17
2018-11-02T17:45:10.734Z,11.16
2018-11-02T17:47:43.385Z,11.11
2018-11-02T17:50:17.051Z,11.06
2018-11-02T17:52:50.320Z,11.07
2018-11-02T17:55:23.243Z,11.00
2018-11-02T17:57:56.211Z,10.97
2018-11-02T18:00:28.692Z,10.94
2018-11-02T18:03:01.168Z,10.89
2018-11-02T18:05:33.605Z,10.88
2018-11-02T18:08:06.231Z,10.82
2018-11-02T18:10:38.784Z,10.79
2018-11-02T18:13:11.223Z,10.79
2018-11-02T18:15:44.993Z,10.79
2018-11-02T18:18:18.367Z,10.74
2018-11-02T18:20:52.114Z,10.73
2018-11-02T18:23:25.616Z,10.72
2018-11-02T18:25:58.366Z,10.73
2018-11-02T18:28:31.262Z,10.73
2018-11-02T18:31:04.629Z,10.71
2018-11-02T18:33:37.586Z,10.68
2018-11-02T18:36:10.040Z,10.65
2018-11-02T18:38:42.489Z,10.59
2018-11-02T18:41:14.926Z,10.60
2018-11-02T18:43:47.371Z,10.58
2018-11-02T18:46:19.756Z,10.58
2018-11-02T18:48:52.292Z,10.58
2018-11-02T18:51:26.641Z,10.57
2018-11-02T18:53:59.499Z,10.53
2018-11-02T18:56:32.891Z,10.45
2018-11-02T18:59:06.420Z,10.40
2018-11-02T19:01:38.998Z,10.41
2018-11-02T19:04:11.574Z,10.41
2018-11-02T19:06:44.178Z,10.37
2018-11-02T19:09:16.700Z,10.29
2018-11-02T19:11:49.131Z,10.29
2018-11-02T19:14:21.502Z,10.31
2018-11-02T19:16:56.299Z,10.29
2018-11-02T19:19:29.633Z,10.34
2018-11-02T19:22:02.790Z,10.31
2018-11-02T19:24:35.269Z,10.28
2018-11-02T19:27:07.803Z,10.26
2018-11-02T19:29:40.195Z,10.27
2018-11-02T19:32:12.845Z,10.27
2018-11-02T19:34:47.143Z,10.26
2018-11-02T19:37:19.892Z,10.22
2018-11-02T19:39:53.464Z,10.23
2018-11-02T19:42:26.290Z,10.23
2018-11-02T19:44:58.936Z,10.19
2018-11-02T19:47:37.227Z,10.16
2018-11-02T19:50:11.987Z,10.08
2018-11-02T19:52:45.411Z,10.05
2018-11-02T19:55:18.709Z,9.98
2018-11-02T19:57:51.789Z,9.98
2018-11-02T20:00:24.847Z,9.97
2018-11-02T20:02:57.389Z,9.98
2018-11-02T20:05:30.084Z,9.94
2018-11-02T20:08:02.696Z,9.94
2018-11-02T20:10:35.160Z,9.88
2018-11-02T20:13:08.087Z,9.86
2018-11-02T20:15:40.804Z,9.80
2018-11-02T20:18:13.447Z,9.85
2018-11-02T20:20:47.419Z,9.83
2018-11-02T20:23:20.362Z,9.81
2018-11-02T20:25:52.880Z,9.77
2018-11-02T20:28:26.238Z,9.71
2018-11-02T20:30:59.800Z,9.62
2018-11-02T20:33:33.007Z,9.60
2018-11-02T20:36:05.973Z,9.52
2018-11-02T20:38:38.502Z,9.45
2018-11-02T20:41:11.132Z,9.35
2018-11-02T20:43:43.590Z,9.34
2018-11-02T20:46:16.050Z,9.28
2018-11-02T20:48:48.567Z,9.20
2018-11-02T20:51:21.089Z,9.12
2018-11-02T20:53:53.518Z,9.07
2018-11-02T20:56:28.348Z,9.01
2018-11-02T20:59:01.360Z,8.92
2018-11-02T21:01:34.484Z,8.89
2018-11-02T21:04:07.256Z,8.79
2018-11-02T21:06:39.881Z,8.76
2018-11-02T21:09:13.194Z,8.74
2018-11-02T21:11:45.469Z,8.68
2018-11-02T21:14:17.948Z,8.69
2018-11-02T21:16:50.446Z,8.70
2018-11-02T21:19:22.837Z,8.61
2018-11-02T21:21:56.257Z,8.54
2018-11-02T21:24:28.646Z,8.48
2018-11-02T21:27:01.242Z,8.44
2018-11-02T21:29:33.633Z,8.42
2018-11-02T21:32:06.039Z,8.41
2018-11-02T21:34:38.490Z,8.40
2018-11-02T21:37:10.946Z,8.40
2018-11-02T21:39:43.486Z,8.43
2018-11-02T21:42:17.941Z,8.43
2018-11-02T21:44:52.866Z,8.39
2018-11-02T21:47:25.819Z,8.38
2018-11-02T21:49:58.359Z,8.36
2018-11-02T21:52:30.842Z,8.37
2018-11-02T21:55:03.486Z,8.40
2018-11-02T21:57:36.068Z,8.43
2018-11-02T22:00:18.800Z,8.44
2018-11-02T22:02:51.156Z,8.48
2018-11-02T22:05:23.534Z,8.48
2018-11-02T22:07:56.025Z,8.54
2018-11-02T22:10:28.542Z,8.53
2018-11-02T22:13:01.114Z,8.57
2018-11-02T22:15:33.699Z,8.57
2018-11-02T22:18:06.154Z,8.62
2018-11-02T22:20:38.703Z,8.64
2018-11-02T22:23:11.314Z,8.64
2018-11-02T22:25:43.870Z,8.59
2018-11-02T22:28:16.273Z,8.60
2018-11-02T22:30:48.700Z,8.62
2018-11-02T22:33:20.999Z,8.62
2018-11-02T22:35:55.966Z,8.65
2018-11-02T22:38:28.362Z,8.66
2018-11-02T22:41:00.821Z,8.81
2018-11-02T22:43:33.322Z,8.78
2018-11-02T22:46:06.645Z,8.64
2018-11-02T22:48:38.994Z,8.62
2018-11-02T22:51:11.350Z,8.62
2018-11-02T22:53:43.858Z,8.62
2018-11-02T22:56:16.258Z,8.62
2018-11-02T22:58:48.647Z,8.63
2018-11-02T23:01:26.130Z,8.61
2018-11-02T23:03:59.890Z,8.57
2018-11-02T23:06:32.337Z,8.59
2018-11-02T23:09:07.539Z,8.62
2018-11-02T23:11:40.074Z,8.62
2018-11-02T23:14:12.770Z,8.64
2018-11-02T23:16:45.234Z,8.64
2018-11-02T23:19:17.662Z,8.66
2018-11-02T23:21:50.029Z,8.64
2018-11-02T23:24:22.642Z,8.63
2018-11-02T23:26:55.039Z,8.70
2018-11-02T23:29:27.537Z,8.74
2018-11-02T23:32:00.069Z,8.73
2018-11-02T23:34:32.804Z,8.69
2018-11-02T23:37:05.197Z,8.78
2018-11-02T23:39:37.681Z,8.72
2018-11-02T23:42:10.131Z,8.71
2018-11-02T23:44:42.560Z,8.76
2018-11-02T23:47:14.858Z,8.85
2018-11-02T23:49:47.254Z,8.77
2018-11-02T23:52:19.950Z,8.73
2018-11-02T23:54:52.822Z,8.74
2018-11-02T23:57:25.715Z,8.72
2018-11-02T23:59:59.482Z,8.71
